Zealand Delilah — PBZI — position and weather

sailwx.info

Track history (hours):
 
Tides and Currents Weather Stations Pressure Air Temp Water Temp Dewpoint Dewpoint Depression Visibility Wind Speed Wind Dir Waves Ship Positions

Zealand Delilah

Last reported at 2016-Jun-22 13:25 UTC. Time now 2016-Jun-29 07:32 UTC.
Position N 37°34' E 015°58'.

Length 134 m; draft 7 m.

Type: Ship. MMSI: 245935000.

Date/timePositionNaut miles runAvg speedWind from/ knotsBaromVisibWave heightAir tempDewpointWater temp
2016-Jun-22 13:25N 37°34' E 015°58'9 9.9
2016-Jun-22 12:33N 37°37' E 015°48'1110.8
2016-Jun-22 11:33N 37°46' E 015°41'1111.5
2016-Jun-22 10:33N 37°57' E 015°34'5 5.4
2016-Jun-22 09:33N 38°02' E 015°33'1111.3
2016-Jun-22 08:33N 38°13' E 015°36'1010.0
2016-Jun-22 07:33N 38°23' E 015°39'1111.1
2016-Jun-22 06:33N 38°33' E 015°33'1110.8
2016-Jun-22 05:33N 38°42' E 015°27'1111.0
2016-Jun-22 04:33N 38°52' E 015°20'1110.6
2016-Jun-22 03:33N 39°01' E 015°13'1110.6
2016-Jun-22 02:28N 39°11' E 015°05'6811.0
2016-Jun-21 20:19N 40°11' E 014°23'911.3
2016-Jun-21 19:33N 40°18' E 014°18'1111.5
2016-Jun-21 18:33N 40°28' E 014°11'1010.2
2016-Jun-21 17:33N 40°39' E 014°10'1111.0
2016-Jun-21 16:33N 40°48' E 014°17'  
2016-Jun-19 10:21N 40°51' E 014°17'0 0.0
2016-Jun-19 09:27N 40°51' E 014°17'0 0.0
2016-Jun-19 08:32N 40°51' E 014°17'0 0.0
2016-Jun-19 07:26N 40°51' E 014°17'0 0.0
2016-Jun-19 06:22N 40°51' E 014°17'0 0.0
2016-Jun-19 05:22N 40°51' E 014°17'0 0.0
2016-Jun-19 04:28N 40°51' E 014°17'0 0.0
2016-Jun-19 03:22N 40°51' E 014°17'0 0.0
2016-Jun-19 02:28N 40°51' E 014°17'0 0.0
2016-Jun-19 01:28N 40°51' E 014°17'0 0.0
2016-Jun-19 00:28N 40°51' E 014°17'0 0.0
2016-Jun-18 23:22N 40°51' E 014°17'0 0.0
2016-Jun-18 22:28N 40°51' E 014°17'0 0.0
2016-Jun-18 21:33N 40°51' E 014°17'0 0.0
2016-Jun-18 20:33N 40°51' E 014°17'0 0.0
2016-Jun-18 19:33N 40°51' E 014°17'0 0.0
2016-Jun-18 18:33N 40°51' E 014°17'2 1.6
2016-Jun-18 17:34N 40°49' E 014°17'9 8.6
2016-Jun-18 16:33N 40°43' E 014°09'1110.7
2016-Jun-18 15:33N 40°37' E 013°57'1110.8
2016-Jun-18 14:33N 40°32' E 013°45'1110.7
2016-Jun-18 13:33N 40°27' E 013°32'1110.5
2016-Jun-18 12:33N 40°23' E 013°20'20010.5
2016-Jun-17 17:33N 38°56' E 009°25'1010.2
2016-Jun-17 16:33N 38°52' E 009°13'2110.2
2016-Jun-17 14:32N 38°43' E 008°49'  
2016-Jun-14 21:32N 35°59' W 005°12'1313.8
2016-Jun-14 20:34N 35°57' W 005°28'10411.1
2016-Jun-14 11:11N 36°11' W 007°36'711.0
2016-Jun-14 10:34N 36°13' W 007°44'1110.7
2016-Jun-14 09:33N 36°16' W 007°57'1110.8
2016-Jun-14 08:33N 36°19' W 008°10'1412.0
2016-Jun-14 07:22N 36°23' W 008°26'5410.5
2016-Jun-14 02:17N 36°43' W 009°28'1010.3
2016-Jun-14 01:21N 36°51' W 009°34'3010.6
2016-Jun-13 22:33N 37°20' W 009°44'1110.8
2016-Jun-13 21:33N 37°31' W 009°47'1110.6
2016-Jun-13 20:33N 37°41' W 009°50'1410.6
2016-Jun-13 19:14N 37°55' W 009°53'810.4
2016-Jun-13 18:30N 38°02' W 009°56'2110.8
2016-Jun-13 16:33N 38°23' W 010°01'1111.1
2016-Jun-13 15:34N 38°33' W 010°04'1110.6
2016-Jun-13 14:33N 38°44' W 010°06'1211.1
2016-Jun-13 13:30N 38°56' W 010°07'  
Track history (hours):
 
Tides and Currents Weather Stations Pressure Air Temp Water Temp Dewpoint Dewpoint Depression Visibility Wind Speed Wind Dir Waves Ship Positions

Zealand Delilah

Last reported at 2016-Jun-22 13:25 UTC. Time now 2016-Jun-29 07:32 UTC.
Position N 37°34' E 015°58'.

Length 134 m; draft 7 m.

Type: Ship. MMSI: 245935000.

Date/timePositionNaut miles runAvg speedWind from/ knotsBaromVisibWave heightAir tempDewpointWater temp
2016-Jun-22 13:25N 37°34' E 015°58'9 9.9
2016-Jun-22 12:33N 37°37' E 015°48'1110.8
2016-Jun-22 11:33N 37°46' E 015°41'1111.5
2016-Jun-22 10:33N 37°57' E 015°34'5 5.4
2016-Jun-22 09:33N 38°02' E 015°33'1111.3
2016-Jun-22 08:33N 38°13' E 015°36'1010.0
2016-Jun-22 07:33N 38°23' E 015°39'1111.1
2016-Jun-22 06:33N 38°33' E 015°33'1110.8
2016-Jun-22 05:33N 38°42' E 015°27'1111.0
2016-Jun-22 04:33N 38°52' E 015°20'1110.6
2016-Jun-22 03:33N 39°01' E 015°13'1110.6
2016-Jun-22 02:28N 39°11' E 015°05'6811.0
2016-Jun-21 20:19N 40°11' E 014°23'911.3
2016-Jun-21 19:33N 40°18' E 014°18'1111.5
2016-Jun-21 18:33N 40°28' E 014°11'1010.2
2016-Jun-21 17:33N 40°39' E 014°10'1111.0
2016-Jun-21 16:33N 40°48' E 014°17'  
2016-Jun-19 10:21N 40°51' E 014°17'0 0.0
2016-Jun-19 09:27N 40°51' E 014°17'0 0.0
2016-Jun-19 08:32N 40°51' E 014°17'0 0.0
2016-Jun-19 07:26N 40°51' E 014°17'0 0.0
2016-Jun-19 06:22N 40°51' E 014°17'0 0.0
2016-Jun-19 05:22N 40°51' E 014°17'0 0.0
2016-Jun-19 04:28N 40°51' E 014°17'0 0.0
2016-Jun-19 03:22N 40°51' E 014°17'0 0.0
2016-Jun-19 02:28N 40°51' E 014°17'0 0.0
2016-Jun-19 01:28N 40°51' E 014°17'0 0.0
2016-Jun-19 00:28N 40°51' E 014°17'0 0.0
2016-Jun-18 23:22N 40°51' E 014°17'0 0.0
2016-Jun-18 22:28N 40°51' E 014°17'0 0.0
2016-Jun-18 21:33N 40°51' E 014°17'0 0.0
2016-Jun-18 20:33N 40°51' E 014°17'0 0.0
2016-Jun-18 19:33N 40°51' E 014°17'0 0.0
2016-Jun-18 18:33N 40°51' E 014°17'2 1.6
2016-Jun-18 17:34N 40°49' E 014°17'9 8.6
2016-Jun-18 16:33N 40°43' E 014°09'1110.7
2016-Jun-18 15:33N 40°37' E 013°57'1110.8
2016-Jun-18 14:33N 40°32' E 013°45'1110.7
2016-Jun-18 13:33N 40°27' E 013°32'1110.5
2016-Jun-18 12:33N 40°23' E 013°20'20010.5
2016-Jun-17 17:33N 38°56' E 009°25'1010.2
2016-Jun-17 16:33N 38°52' E 009°13'2110.2
2016-Jun-17 14:32N 38°43' E 008°49'  
2016-Jun-14 21:32N 35°59' W 005°12'1313.8
2016-Jun-14 20:34N 35°57' W 005°28'10411.1
2016-Jun-14 11:11N 36°11' W 007°36'711.0
2016-Jun-14 10:34N 36°13' W 007°44'1110.7
2016-Jun-14 09:33N 36°16' W 007°57'1110.8
2016-Jun-14 08:33N 36°19' W 008°10'1412.0
2016-Jun-14 07:22N 36°23' W 008°26'5410.5
2016-Jun-14 02:17N 36°43' W 009°28'1010.3
2016-Jun-14 01:21N 36°51' W 009°34'3010.6
2016-Jun-13 22:33N 37°20' W 009°44'1110.8
2016-Jun-13 21:33N 37°31' W 009°47'1110.6
2016-Jun-13 20:33N 37°41' W 009°50'1410.6
2016-Jun-13 19:14N 37°55' W 009°53'810.4
2016-Jun-13 18:30N 38°02' W 009°56'2110.8
2016-Jun-13 16:33N 38°23' W 010°01'1111.1
2016-Jun-13 15:34N 38°33' W 010°04'1110.6
2016-Jun-13 14:33N 38°44' W 010°06'1211.1
2016-Jun-13 13:30N 38°56' W 010°07'  

Dump ship's entire track history